sensor_id;sensor_type;location;lat;lon;timestamp;temperature;humidity
24152;DHT22;12311;50.866;4.332;2022-07-04T00:00:19;16.90;99.90
24152;DHT22;12311;50.866;4.332;2022-07-04T00:02:46;16.90;99.90
24152;DHT22;12311;50.866;4.332;2022-07-04T00:05:13;16.80;99.90
24152;DHT22;12311;50.866;4.332;2022-07-04T00:07:46;16.70;99.90
24152;DHT22;12311;50.866;4.332;2022-07-04T00:10:15;16.70;99.90
24152;DHT22;12311;50.866;4.332;2022-07-04T00:12:41;16.70;99.90
24152;DHT22;12311;50.866;4.332;2022-07-04T00:15:08;16.60;99.90
24152;DHT22;12311;50.866;4.332;2022-07-04T00:17:35;16.60;99.90
24152;DHT22;12311;50.866;4.332;2022-07-04T00:20:00;16.70;99.90
24152;DHT22;12311;50.866;4.332;2022-07-04T00:22:26;16.60;99.90
24152;DHT22;12311;50.866;4.332;2022-07-04T00:24:52;16.50;99.90
24152;DHT22;12311;50.866;4.332;2022-07-04T00:27:18;16.50;99.90
24152;DHT22;12311;50.866;4.332;2022-07-04T00:29:43;16.40;99.90
24152;DHT22;12311;50.866;4.332;2022-07-04T00:32:09;16.40;99.90
24152;DHT22;12311;50.866;4.332;2022-07-04T00:34:35;16.30;99.90
24152;DHT22;12311;50.866;4.332;2022-07-04T00:37:01;16.30;99.90
24152;DHT22;12311;50.866;4.332;2022-07-04T00:39:27;16.40;99.90
24152;DHT22;12311;50.866;4.332;2022-07-04T00:41:53;16.40;99.90
24152;DHT22;12311;50.866;4.332;2022-07-04T00:44:18;16.30;99.90
24152;DHT22;12311;50.866;4.332;2022-07-04T00:46:46;16.20;99.90
24152;DHT22;12311;50.866;4.332;2022-07-04T00:49:14;16.10;99.90
24152;DHT22;12311;50.866;4.332;2022-07-04T00:51:41;16.10;99.90
24152;DHT22;12311;50.866;4.332;2022-07-04T00:54:09;16.00;99.90
24152;DHT22;12311;50.866;4.332;2022-07-04T00:56:36;16.00;99.90
24152;DHT22;12311;50.866;4.332;2022-07-04T00:59:02;15.90;99.90
24152;DHT22;12311;50.866;4.332;2022-07-04T01:01:28;15.90;99.90
24152;DHT22;12311;50.866;4.332;2022-07-04T01:03:55;15.90;99.90
24152;DHT22;12311;50.866;4.332;2022-07-04T01:06:21;15.80;99.90
24152;DHT22;12311;50.866;4.332;2022-07-04T01:08:47;15.90;99.90
24152;DHT22;12311;50.866;4.332;2022-07-04T01:11:13;15.80;99.90
24152;DHT22;12311;50.866;4.332;2022-07-04T01:13:39;15.70;99.90
24152;DHT22;12311;50.866;4.332;2022-07-04T01:16:09;15.70;99.90
24152;DHT22;12311;50.866;4.332;2022-07-04T01:18:35;15.70;99.90
24152;DHT22;12311;50.866;4.332;2022-07-04T01:21:01;15.70;99.90
24152;DHT22;12311;50.866;4.332;2022-07-04T01:23:27;15.80;99.90
24152;DHT22;12311;50.866;4.332;2022-07-04T01:25:53;15.80;99.90
24152;DHT22;12311;50.866;4.332;2022-07-04T01:28:20;15.70;99.90
24152;DHT22;12311;50.866;4.332;2022-07-04T01:30:46;15.70;99.90
24152;DHT22;12311;50.866;4.332;2022-07-04T01:33:12;15.70;99.90
24152;DHT22;12311;50.866;4.332;2022-07-04T01:35:37;15.70;99.90
24152;DHT22;12311;50.866;4.332;2022-07-04T01:38:03;15.60;99.90
24152;DHT22;12311;50.866;4.332;2022-07-04T01:40:29;15.50;99.90
24152;DHT22;12311;50.866;4.332;2022-07-04T01:42:55;15.60;99.90
24152;DHT22;12311;50.866;4.332;2022-07-04T01:45:21;15.70;99.90
24152;DHT22;12311;50.866;4.332;2022-07-04T01:47:46;15.70;99.90
24152;DHT22;12311;50.866;4.332;2022-07-04T01:50:12;15.60;99.90
24152;DHT22;12311;50.866;4.332;2022-07-04T01:52:39;15.50;99.90
24152;DHT22;12311;50.866;4.332;2022-07-04T01:55:06;15.50;99.90
24152;DHT22;12311;50.866;4.332;2022-07-04T01:57:32;15.50;99.90
24152;DHT22;12311;50.866;4.332;2022-07-04T01:59:58;15.40;99.90
24152;DHT22;12311;50.866;4.332;2022-07-04T02:02:42;15.40;99.90
24152;DHT22;12311;50.866;4.332;2022-07-04T02:05:08;15.50;99.90
24152;DHT22;12311;50.866;4.332;2022-07-04T02:07:34;15.40;99.90
24152;DHT22;12311;50.866;4.332;2022-07-04T02:10:00;15.30;99.90
24152;DHT22;12311;50.866;4.332;2022-07-04T02:12:25;15.30;99.90
24152;DHT22;12311;50.866;4.332;2022-07-04T02:15:10;15.20;99.90
24152;DHT22;12311;50.866;4.332;2022-07-04T02:17:36;15.20;99.90
24152;DHT22;12311;50.866;4.332;2022-07-04T02:20:03;15.10;99.90
24152;DHT22;12311;50.866;4.332;2022-07-04T02:22:30;15.00;99.90
24152;DHT22;12311;50.866;4.332;2022-07-04T02:24:56;15.00;99.90
24152;DHT22;12311;50.866;4.332;2022-07-04T02:27:22;15.00;99.90
24152;DHT22;12311;50.866;4.332;2022-07-04T02:29:48;14.90;99.90
24152;DHT22;12311;50.866;4.332;2022-07-04T02:32:13;14.90;99.90
24152;DHT22;12311;50.866;4.332;2022-07-04T02:34:39;14.90;99.90
24152;DHT22;12311;50.866;4.332;2022-07-04T02:37:05;14.90;99.90
24152;DHT22;12311;50.866;4.332;2022-07-04T02:39:30;14.80;99.90
24152;DHT22;12311;50.866;4.332;2022-07-04T02:41:56;14.80;99.90
24152;DHT22;12311;50.866;4.332;2022-07-04T02:44:22;14.80;99.90
24152;DHT22;12311;50.866;4.332;2022-07-04T02:46:47;14.70;99.90
24152;DHT22;12311;50.866;4.332;2022-07-04T02:49:13;14.70;99.90
24152;DHT22;12311;50.866;4.332;2022-07-04T02:51:38;14.70;99.90
24152;DHT22;12311;50.866;4.332;2022-07-04T02:54:04;14.60;99.90
24152;DHT22;12311;50.866;4.332;2022-07-04T02:56:30;14.60;99.90
24152;DHT22;12311;50.866;4.332;2022-07-04T02:58:55;14.50;99.90
24152;DHT22;12311;50.866;4.332;2022-07-04T03:01:21;14.50;99.90
24152;DHT22;12311;50.866;4.332;2022-07-04T03:03:47;14.50;99.90
24152;DHT22;12311;50.866;4.332;2022-07-04T03:06:13;14.60;99.90
24152;DHT22;12311;50.866;4.332;2022-07-04T03:08:39;14.60;99.90
24152;DHT22;12311;50.866;4.332;2022-07-04T03:11:05;14.60;99.90
24152;DHT22;12311;50.866;4.332;2022-07-04T03:13:31;14.40;99.90
24152;DHT22;12311;50.866;4.332;2022-07-04T03:15:57;14.40;99.90
24152;DHT22;12311;50.866;4.332;2022-07-04T03:18:23;14.40;99.90
24152;DHT22;12311;50.866;4.332;2022-07-04T03:20:49;14.40;99.90
24152;DHT22;12311;50.866;4.332;2022-07-04T03:23:15;14.40;99.90
24152;DHT22;12311;50.866;4.332;2022-07-04T03:25:41;14.40;99.90
24152;DHT22;12311;50.866;4.332;2022-07-04T03:28:07;14.50;99.90
24152;DHT22;12311;50.866;4.332;2022-07-04T03:30:33;14.50;99.90
24152;DHT22;12311;50.866;4.332;2022-07-04T03:32:59;14.40;99.90
24152;DHT22;12311;50.866;4.332;2022-07-04T03:35:25;14.40;99.90
24152;DHT22;12311;50.866;4.332;2022-07-04T03:37:51;14.30;99.90
24152;DHT22;12311;50.866;4.332;2022-07-04T03:40:18;14.30;99.90
24152;DHT22;12311;50.866;4.332;2022-07-04T03:42:45;14.30;99.90
24152;DHT22;12311;50.866;4.332;2022-07-04T03:45:10;14.30;99.90
24152;DHT22;12311;50.866;4.332;2022-07-04T03:47:36;14.20;99.90
24152;DHT22;12311;50.866;4.332;2022-07-04T03:50:02;14.20;99.90
24152;DHT22;12311;50.866;4.332;2022-07-04T03:52:28;14.20;99.90
24152;DHT22;12311;50.866;4.332;2022-07-04T03:54:54;14.30;99.90
24152;DHT22;12311;50.866;4.332;2022-07-04T03:57:20;14.30;99.90
24152;DHT22;12311;50.866;4.332;2022-07-04T03:59:46;14.30;99.90
24152;DHT22;12311;50.866;4.332;2022-07-04T04:02:12;14.20;99.90
24152;DHT22;12311;50.866;4.332;2022-07-04T04:04:37;14.20;99.90
24152;DHT22;12311;50.866;4.332;2022-07-04T04:07:22;14.30;99.90
24152;DHT22;12311;50.866;4.332;2022-07-04T04:09:47;14.20;99.90
24152;DHT22;12311;50.866;4.332;2022-07-04T04:12:13;14.30;99.90
24152;DHT22;12311;50.866;4.332;2022-07-04T04:14:39;14.30;99.90
24152;DHT22;12311;50.866;4.332;2022-07-04T04:17:04;14.20;99.90
24152;DHT22;12311;50.866;4.332;2022-07-04T04:19:30;14.30;99.90
24152;DHT22;12311;50.866;4.332;2022-07-04T04:21:55;14.20;99.90
24152;DHT22;12311;50.866;4.332;2022-07-04T04:24:21;14.20;99.90
24152;DHT22;12311;50.866;4.332;2022-07-04T04:26:47;14.20;99.90
24152;DHT22;12311;50.866;4.332;2022-07-04T04:29:13;14.20;99.90
24152;DHT22;12311;50.866;4.332;2022-07-04T04:31:38;14.10;99.90
24152;DHT22;12311;50.866;4.332;2022-07-04T04:34:04;14.10;99.90
24152;DHT22;12311;50.866;4.332;2022-07-04T04:36:30;14.20;99.90
24152;DHT22;12311;50.866;4.332;2022-07-04T04:38:55;14.20;99.90
24152;DHT22;12311;50.866;4.332;2022-07-04T04:41:21;14.20;99.90
24152;DHT22;12311;50.866;4.332;2022-07-04T04:43:47;14.30;99.90
24152;DHT22;12311;50.866;4.332;2022-07-04T04:46:12;14.30;99.90
24152;DHT22;12311;50.866;4.332;2022-07-04T04:48:38;14.40;99.90
24152;DHT22;12311;50.866;4.332;2022-07-04T04:51:05;14.40;99.90
24152;DHT22;12311;50.866;4.332;2022-07-04T04:53:30;14.40;99.90
24152;DHT22;12311;50.866;4.332;2022-07-04T04:55:56;14.50;99.90
24152;DHT22;12311;50.866;4.332;2022-07-04T04:58:22;14.50;99.90
24152;DHT22;12311;50.866;4.332;2022-07-04T05:00:49;14.50;99.90
24152;DHT22;12311;50.866;4.332;2022-07-04T05:03:18;14.50;99.90
24152;DHT22;12311;50.866;4.332;2022-07-04T05:05:45;14.60;99.90
24152;DHT22;12311;50.866;4.332;2022-07-04T05:08:11;14.70;99.90
24152;DHT22;12311;50.866;4.332;2022-07-04T05:10:38;14.60;99.90
24152;DHT22;12311;50.866;4.332;2022-07-04T05:13:04;14.60;99.90
24152;DHT22;12311;50.866;4.332;2022-07-04T05:15:30;14.60;99.90
24152;DHT22;12311;50.866;4.332;2022-07-04T05:17:56;14.60;99.90
24152;DHT22;12311;50.866;4.332;2022-07-04T05:20:22;14.70;99.90
24152;DHT22;12311;50.866;4.332;2022-07-04T05:22:47;14.70;99.90
24152;DHT22;12311;50.866;4.332;2022-07-04T05:25:13;14.80;99.90
24152;DHT22;12311;50.866;4.332;2022-07-04T05:27:39;14.90;99.90
24152;DHT22;12311;50.866;4.332;2022-07-04T05:30:05;14.90;99.90
24152;DHT22;12311;50.866;4.332;2022-07-04T05:32:31;14.80;99.90
24152;DHT22;12311;50.866;4.332;2022-07-04T05:34:57;14.90;99.90
24152;DHT22;12311;50.866;4.332;2022-07-04T05:37:23;14.90;99.90
24152;DHT22;12311;50.866;4.332;2022-07-04T05:39:49;14.90;99.90
24152;DHT22;12311;50.866;4.332;2022-07-04T05:42:15;14.90;99.90
24152;DHT22;12311;50.866;4.332;2022-07-04T05:44:41;15.00;99.90
24152;DHT22;12311;50.866;4.332;2022-07-04T05:47:06;15.00;99.90
24152;DHT22;12311;50.866;4.332;2022-07-04T05:49:33;15.20;99.90
24152;DHT22;12311;50.866;4.332;2022-07-04T05:51:58;15.30;99.90
24152;DHT22;12311;50.866;4.332;2022-07-04T05:54:24;15.40;99.90
24152;DHT22;12311;50.866;4.332;2022-07-04T05:56:49;15.40;99.90
24152;DHT22;12311;50.866;4.332;2022-07-04T05:59:15;15.40;99.90
24152;DHT22;12311;50.866;4.332;2022-07-04T06:01:41;15.30;99.90
24152;DHT22;12311;50.866;4.332;2022-07-04T06:04:07;15.30;99.90
24152;DHT22;12311;50.866;4.332;2022-07-04T06:06:33;15.50;99.90
24152;DHT22;12311;50.866;4.332;2022-07-04T06:08:58;15.60;99.90
24152;DHT22;12311;50.866;4.332;2022-07-04T06:11:24;15.70;99.90
24152;DHT22;12311;50.866;4.332;2022-07-04T06:13:50;15.60;99.90
24152;DHT22;12311;50.866;4.332;2022-07-04T06:16:16;15.60;99.90
24152;DHT22;12311;50.866;4.332;2022-07-04T06:18:42;15.50;99.90
24152;DHT22;12311;50.866;4.332;2022-07-04T06:21:08;15.70;99.90
24152;DHT22;12311;50.866;4.332;2022-07-04T06:23:34;15.80;99.90
24152;DHT22;12311;50.866;4.332;2022-07-04T06:26:00;15.90;99.90
24152;DHT22;12311;50.866;4.332;2022-07-04T06:28:26;15.90;99.90
24152;DHT22;12311;50.866;4.332;2022-07-04T06:30:52;16.00;99.90
24152;DHT22;12311;50.866;4.332;2022-07-04T06:33:18;16.10;99.90
24152;DHT22;12311;50.866;4.332;2022-07-04T06:35:44;16.30;99.90
24152;DHT22;12311;50.866;4.332;2022-07-04T06:38:16;16.60;99.90
24152;DHT22;12311;50.866;4.332;2022-07-04T06:40:43;16.70;99.90
24152;DHT22;12311;50.866;4.332;2022-07-04T06:43:09;16.80;99.90
24152;DHT22;12311;50.866;4.332;2022-07-04T06:45:35;16.80;99.90
24152;DHT22;12311;50.866;4.332;2022-07-04T06:48:04;16.80;99.90
24152;DHT22;12311;50.866;4.332;2022-07-04T06:50:31;16.90;99.90
24152;DHT22;12311;50.866;4.332;2022-07-04T06:53:02;17.10;99.90
24152;DHT22;12311;50.866;4.332;2022-07-04T06:55:29;17.10;99.90
24152;DHT22;12311;50.866;4.332;2022-07-04T06:57:55;17.10;99.90
24152;DHT22;12311;50.866;4.332;2022-07-04T07:00:21;17.10;99.90
24152;DHT22;12311;50.866;4.332;2022-07-04T07:02:46;17.20;99.90
24152;DHT22;12311;50.866;4.332;2022-07-04T07:05:12;17.20;99.90
24152;DHT22;12311;50.866;4.332;2022-07-04T07:07:38;17.30;99.90
24152;DHT22;12311;50.866;4.332;2022-07-04T07:10:04;17.40;99.90
24152;DHT22;12311;50.866;4.332;2022-07-04T07:12:32;17.60;99.90
24152;DHT22;12311;50.866;4.332;2022-07-04T07:14:57;17.50;99.90
24152;DHT22;12311;50.866;4.332;2022-07-04T07:17:23;17.50;99.90
24152;DHT22;12311;50.866;4.332;2022-07-04T07:19:49;17.50;99.90
24152;DHT22;12311;50.866;4.332;2022-07-04T07:22:15;17.50;99.90
24152;DHT22;12311;50.866;4.332;2022-07-04T07:24:42;17.40;99.90
24152;DHT22;12311;50.866;4.332;2022-07-04T07:27:08;17.60;99.90
24152;DHT22;12311;50.866;4.332;2022-07-04T07:29:34;17.70;99.90
24152;DHT22;12311;50.866;4.332;2022-07-04T07:32:00;17.90;99.90
24152;DHT22;12311;50.866;4.332;2022-07-04T07:34:26;18.00;99.90
24152;DHT22;12311;50.866;4.332;2022-07-04T07:36:52;18.00;99.90
24152;DHT22;12311;50.866;4.332;2022-07-04T07:39:17;18.20;99.90
24152;DHT22;12311;50.866;4.332;2022-07-04T07:41:43;18.30;99.90
24152;DHT22;12311;50.866;4.332;2022-07-04T07:44:09;18.20;99.90
24152;DHT22;12311;50.866;4.332;2022-07-04T07:46:35;18.30;99.90
24152;DHT22;12311;50.866;4.332;2022-07-04T07:49:01;18.30;99.90
24152;DHT22;12311;50.866;4.332;2022-07-04T07:51:26;18.50;99.90
24152;DHT22;12311;50.866;4.332;2022-07-04T07:53:52;18.60;99.90
24152;DHT22;12311;50.866;4.332;2022-07-04T07:56:18;18.60;99.90
24152;DHT22;12311;50.866;4.332;2022-07-04T07:58:43;18.70;99.90
24152;DHT22;12311;50.866;4.332;2022-07-04T08:01:09;18.80;99.90
24152;DHT22;12311;50.866;4.332;2022-07-04T08:03:35;18.90;99.90
24152;DHT22;12311;50.866;4.332;2022-07-04T08:06:19;19.00;99.90
24152;DHT22;12311;50.866;4.332;2022-07-04T08:08:44;18.90;99.90
24152;DHT22;12311;50.866;4.332;2022-07-04T08:11:11;19.00;99.90
24152;DHT22;12311;50.866;4.332;2022-07-04T08:13:37;19.10;99.90
24152;DHT22;12311;50.866;4.332;2022-07-04T08:16:03;19.20;99.90
24152;DHT22;12311;50.866;4.332;2022-07-04T08:18:29;19.50;99.90
24152;DHT22;12311;50.866;4.332;2022-07-04T08:20:55;19.50;99.90
24152;DHT22;12311;50.866;4.332;2022-07-04T08:23:20;19.50;99.90
24152;DHT22;12311;50.866;4.332;2022-07-04T08:25:46;19.50;99.90
24152;DHT22;12311;50.866;4.332;2022-07-04T08:28:12;19.50;99.90
24152;DHT22;12311;50.866;4.332;2022-07-04T08:30:38;19.60;99.90
24152;DHT22;12311;50.866;4.332;2022-07-04T08:33:04;19.70;99.90
24152;DHT22;12311;50.866;4.332;2022-07-04T08:35:29;19.70;99.90
24152;DHT22;12311;50.866;4.332;2022-07-04T08:37:55;19.80;99.90
24152;DHT22;12311;50.866;4.332;2022-07-04T08:40:23;19.70;99.90
24152;DHT22;12311;50.866;4.332;2022-07-04T08:42:49;19.70;99.90
24152;DHT22;12311;50.866;4.332;2022-07-04T08:45:17;19.80;99.90
24152;DHT22;12311;50.866;4.332;2022-07-04T08:47:43;19.80;99.90
24152;DHT22;12311;50.866;4.332;2022-07-04T08:50:21;19.80;99.90
24152;DHT22;12311;50.866;4.332;2022-07-04T08:52:54;20.00;99.90
24152;DHT22;12311;50.866;4.332;2022-07-04T08:55:22;20.10;99.90
24152;DHT22;12311;50.866;4.332;2022-07-04T08:58:06;20.20;99.90
24152;DHT22;12311;50.866;4.332;2022-07-04T09:00:51;20.30;99.90
24152;DHT22;12311;50.866;4.332;2022-07-04T09:03:18;20.30;99.90
24152;DHT22;12311;50.866;4.332;2022-07-04T09:05:45;20.30;99.90
24152;DHT22;12311;50.866;4.332;2022-07-04T09:08:11;20.50;99.90
24152;DHT22;12311;50.866;4.332;2022-07-04T09:10:37;20.50;99.90
24152;DHT22;12311;50.866;4.332;2022-07-04T09:13:07;20.60;99.90
24152;DHT22;12311;50.866;4.332;2022-07-04T09:15:33;20.50;99.90
24152;DHT22;12311;50.866;4.332;2022-07-04T09:18:03;20.70;99.90
24152;DHT22;12311;50.866;4.332;2022-07-04T09:20:30;20.60;99.90
24152;DHT22;12311;50.866;4.332;2022-07-04T09:22:56;20.80;99.90
24152;DHT22;12311;50.866;4.332;2022-07-04T09:25:23;21.00;99.90
24152;DHT22;12311;50.866;4.332;2022-07-04T09:27:55;21.00;99.90
24152;DHT22;12311;50.866;4.332;2022-07-04T09:30:21;21.00;99.90
24152;DHT22;12311;50.866;4.332;2022-07-04T09:32:48;21.20;99.90
24152;DHT22;12311;50.866;4.332;2022-07-04T09:35:24;21.30;99.90
24152;DHT22;12311;50.866;4.332;2022-07-04T09:37:59;21.40;99.90
24152;DHT22;12311;50.866;4.332;2022-07-04T09:40:34;21.40;99.90
24152;DHT22;12311;50.866;4.332;2022-07-04T09:43:20;21.30;99.90
24152;DHT22;12311;50.866;4.332;2022-07-04T09:45:56;21.60;99.90
24152;DHT22;12311;50.866;4.332;2022-07-04T09:48:22;21.90;99.90
24152;DHT22;12311;50.866;4.332;2022-07-04T09:50:49;22.00;99.90
24152;DHT22;12311;50.866;4.332;2022-07-04T09:53:14;22.20;99.90
24152;DHT22;12311;50.866;4.332;2022-07-04T09:55:40;22.70;99.90
24152;DHT22;12311;50.866;4.332;2022-07-04T09:58:11;23.20;99.90
24152;DHT22;12311;50.866;4.332;2022-07-04T10:03:38;23.90;99.90
24152;DHT22;12311;50.866;4.332;2022-07-04T10:06:10;24.80;99.90
24152;DHT22;12311;50.866;4.332;2022-07-04T10:08:38;25.00;99.90
24152;DHT22;12311;50.866;4.332;2022-07-04T10:11:05;26.10;99.90
24152;DHT22;12311;50.866;4.332;2022-07-04T10:13:31;25.90;99.90
24152;DHT22;12311;50.866;4.332;2022-07-04T10:15:57;25.50;99.90
24152;DHT22;12311;50.866;4.332;2022-07-04T10:18:24;25.80;99.90
24152;DHT22;12311;50.866;4.332;2022-07-04T10:20:51;26.10;99.90
24152;DHT22;12311;50.866;4.332;2022-07-04T10:23:18;26.40;99.90
24152;DHT22;12311;50.866;4.332;2022-07-04T10:25:51;26.30;99.90
24152;DHT22;12311;50.866;4.332;2022-07-04T10:28:18;26.50;99.90
24152;DHT22;12311;50.866;4.332;2022-07-04T10:30:47;26.70;99.90
24152;DHT22;12311;50.866;4.332;2022-07-04T10:33:15;25.60;99.90
24152;DHT22;12311;50.866;4.332;2022-07-04T10:38:17;25.10;99.90
24152;DHT22;12311;50.866;4.332;2022-07-04T10:40:50;25.10;99.90
24152;DHT22;12311;50.866;4.332;2022-07-04T10:48:28;25.30;99.90
24152;DHT22;12311;50.866;4.332;2022-07-04T10:51:03;25.80;99.90
24152;DHT22;12311;50.866;4.332;2022-07-04T10:53:30;27.10;99.90
24152;DHT22;12311;50.866;4.332;2022-07-04T10:58:41;26.50;99.90
24152;DHT22;12311;50.866;4.332;2022-07-04T11:01:14;25.90;99.90
24152;DHT22;12311;50.866;4.332;2022-07-04T11:03:51;25.80;99.90
24152;DHT22;12311;50.866;4.332;2022-07-04T11:09:18;25.50;99.90
24152;DHT22;12311;50.866;4.332;2022-07-04T11:12:00;25.70;99.90
24152;DHT22;12311;50.866;4.332;2022-07-04T11:14:52;25.90;99.90
24152;DHT22;12311;50.866;4.332;2022-07-04T11:17:21;25.60;99.90
24152;DHT22;12311;50.866;4.332;2022-07-04T11:20:02;25.40;99.90
24152;DHT22;12311;50.866;4.332;2022-07-04T11:22:27;26.10;99.90
24152;DHT22;12311;50.866;4.332;2022-07-04T11:24:53;26.20;99.90
24152;DHT22;12311;50.866;4.332;2022-07-04T11:27:21;25.90;99.90
24152;DHT22;12311;50.866;4.332;2022-07-04T11:29:52;25.70;99.90
24152;DHT22;12311;50.866;4.332;2022-07-04T11:32:18;26.20;99.90
24152;DHT22;12311;50.866;4.332;2022-07-04T11:34:44;26.50;99.90
24152;DHT22;12311;50.866;4.332;2022-07-04T11:37:10;27.20;99.90
24152;DHT22;12311;50.866;4.332;2022-07-04T11:39:35;28.60;99.90
24152;DHT22;12311;50.866;4.332;2022-07-04T11:42:01;29.10;99.90
24152;DHT22;12311;50.866;4.332;2022-07-04T11:44:45;29.60;98.60
24152;DHT22;12311;50.866;4.332;2022-07-04T11:47:43;28.60;98.70
24152;DHT22;12311;50.866;4.332;2022-07-04T11:50:10;27.90;99.90
24152;DHT22;12311;50.866;4.332;2022-07-04T11:55:06;28.20;99.90
24152;DHT22;12311;50.866;4.332;2022-07-04T11:57:43;28.70;99.50
24152;DHT22;12311;50.866;4.332;2022-07-04T12:00:12;29.60;97.20
24152;DHT22;12311;50.866;4.332;2022-07-04T12:02:38;28.70;97.60
24152;DHT22;12311;50.866;4.332;2022-07-04T12:05:11;27.50;99.50
24152;DHT22;12311;50.866;4.332;2022-07-04T12:07:39;27.30;99.90
24152;DHT22;12311;50.866;4.332;2022-07-04T12:10:16;27.30;99.90
24152;DHT22;12311;50.866;4.332;2022-07-04T12:15:24;28.50;99.20
24152;DHT22;12311;50.866;4.332;2022-07-04T12:17:55;28.40;98.30
24152;DHT22;12311;50.866;4.332;2022-07-04T12:20:23;27.80;99.60
24152;DHT22;12311;50.866;4.332;2022-07-04T12:22:57;28.60;99.00
24152;DHT22;12311;50.866;4.332;2022-07-04T12:25:27;29.20;96.90
24152;DHT22;12311;50.866;4.332;2022-07-04T12:28:06;29.50;96.10
24152;DHT22;12311;50.866;4.332;2022-07-04T12:30:39;30.00;93.40
24152;DHT22;12311;50.866;4.332;2022-07-04T12:33:07;29.70;93.60
24152;DHT22;12311;50.866;4.332;2022-07-04T12:41:14;30.70;86.60
24152;DHT22;12311;50.866;4.332;2022-07-04T12:46:33;31.30;84.30
24152;DHT22;12311;50.866;4.332;2022-07-04T12:49:00;31.90;82.50
24152;DHT22;12311;50.866;4.332;2022-07-04T12:51:31;32.80;78.80
24152;DHT22;12311;50.866;4.332;2022-07-04T12:53:59;32.50;75.60
24152;DHT22;12311;50.866;4.332;2022-07-04T12:56:36;32.70;74.40
24152;DHT22;12311;50.866;4.332;2022-07-04T12:59:10;31.20;75.20
24152;DHT22;12311;50.866;4.332;2022-07-04T13:01:37;29.90;79.00
24152;DHT22;12311;50.866;4.332;2022-07-04T13:04:03;29.70;80.80
24152;DHT22;12311;50.866;4.332;2022-07-04T13:06:29;29.60;81.60
24152;DHT22;12311;50.866;4.332;2022-07-04T13:08:56;30.50;80.30
24152;DHT22;12311;50.866;4.332;2022-07-04T13:11:22;31.10;79.40
24152;DHT22;12311;50.866;4.332;2022-07-04T13:14:06;30.50;79.20
24152;DHT22;12311;50.866;4.332;2022-07-04T13:16:32;29.80;81.40
24152;DHT22;12311;50.866;4.332;2022-07-04T13:18:57;29.70;81.20
24152;DHT22;12311;50.866;4.332;2022-07-04T13:21:24;31.20;80.10
24152;DHT22;12311;50.866;4.332;2022-07-04T13:23:49;32.70;75.70
24152;DHT22;12311;50.866;4.332;2022-07-04T13:26:15;32.30;72.70
24152;DHT22;12311;50.866;4.332;2022-07-04T13:28:41;31.50;71.80
24152;DHT22;12311;50.866;4.332;2022-07-04T13:31:08;31.50;72.50
24152;DHT22;12311;50.866;4.332;2022-07-04T13:33:33;31.80;73.00
24152;DHT22;12311;50.866;4.332;2022-07-04T13:35:59;30.70;75.00
24152;DHT22;12311;50.866;4.332;2022-07-04T13:38:25;30.00;76.80
24152;DHT22;12311;50.866;4.332;2022-07-04T13:40:51;28.70;80.50
24152;DHT22;12311;50.866;4.332;2022-07-04T13:43:17;27.80;83.20
24152;DHT22;12311;50.866;4.332;2022-07-04T13:45:43;27.80;86.40
24152;DHT22;12311;50.866;4.332;2022-07-04T13:48:14;28.40;84.40
24152;DHT22;12311;50.866;4.332;2022-07-04T13:50:40;28.00;83.20
24152;DHT22;12311;50.866;4.332;2022-07-04T13:53:09;27.60;85.40
24152;DHT22;12311;50.866;4.332;2022-07-04T13:55:35;27.40;85.50
24152;DHT22;12311;50.866;4.332;2022-07-04T13:58:02;27.20;86.10
24152;DHT22;12311;50.866;4.332;2022-07-04T14:00:28;27.20;86.90
24152;DHT22;12311;50.866;4.332;2022-07-04T14:02:54;27.40;87.30
24152;DHT22;12311;50.866;4.332;2022-07-04T14:05:20;27.50;87.70
24152;DHT22;12311;50.866;4.332;2022-07-04T14:07:46;27.80;87.40
24152;DHT22;12311;50.866;4.332;2022-07-04T14:10:11;28.80;85.90
24152;DHT22;12311;50.866;4.332;2022-07-04T14:12:37;30.00;83.60
24152;DHT22;12311;50.866;4.332;2022-07-04T14:15:03;30.30;80.70
24152;DHT22;12311;50.866;4.332;2022-07-04T14:17:29;31.30;80.10
24152;DHT22;12311;50.866;4.332;2022-07-04T14:19:55;30.80;78.40
24152;DHT22;12311;50.866;4.332;2022-07-04T14:22:21;31.40;78.00
24152;DHT22;12311;50.866;4.332;2022-07-04T14:24:47;32.10;76.70
24152;DHT22;12311;50.866;4.332;2022-07-04T14:27:12;31.70;75.40
24152;DHT22;12311;50.866;4.332;2022-07-04T14:29:38;32.40;74.80
24152;DHT22;12311;50.866;4.332;2022-07-04T14:32:04;33.70;72.40
24152;DHT22;12311;50.866;4.332;2022-07-04T14:34:29;35.50;69.00
24152;DHT22;12311;50.866;4.332;2022-07-04T14:36:55;33.30;67.60
24152;DHT22;12311;50.866;4.332;2022-07-04T14:39:21;32.00;71.50
24152;DHT22;12311;50.866;4.332;2022-07-04T14:41:47;30.20;74.60
24152;DHT22;12311;50.866;4.332;2022-07-04T14:44:14;28.90;77.00
24152;DHT22;12311;50.866;4.332;2022-07-04T14:46:40;28.20;79.60
24152;DHT22;12311;50.866;4.332;2022-07-04T14:49:05;27.70;82.50
24152;DHT22;12311;50.866;4.332;2022-07-04T14:51:31;27.50;84.00
24152;DHT22;12311;50.866;4.332;2022-07-04T14:53:57;27.50;85.30
24152;DHT22;12311;50.866;4.332;2022-07-04T14:56:23;28.30;84.70
24152;DHT22;12311;50.866;4.332;2022-07-04T14:58:48;28.40;82.70
24152;DHT22;12311;50.866;4.332;2022-07-04T15:01:14;28.80;81.60
24152;DHT22;12311;50.866;4.332;2022-07-04T15:03:40;29.10;81.10
24152;DHT22;12311;50.866;4.332;2022-07-04T15:06:05;28.90;79.60
24152;DHT22;12311;50.866;4.332;2022-07-04T15:08:31;27.90;83.20
24152;DHT22;12311;50.866;4.332;2022-07-04T15:10:57;28.20;82.30
24152;DHT22;12311;50.866;4.332;2022-07-04T15:13:22;28.70;83.30
24152;DHT22;12311;50.866;4.332;2022-07-04T15:15:48;28.90;81.30
24152;DHT22;12311;50.866;4.332;2022-07-04T15:18:13;29.10;81.20
24152;DHT22;12311;50.866;4.332;2022-07-04T15:20:39;28.80;80.30
24152;DHT22;12311;50.866;4.332;2022-07-04T15:23:24;28.50;80.90
24152;DHT22;12311;50.866;4.332;2022-07-04T15:26:08;29.00;80.60
24152;DHT22;12311;50.866;4.332;2022-07-04T15:28:34;29.10;80.50
24152;DHT22;12311;50.866;4.332;2022-07-04T15:31:00;28.90;80.40
24152;DHT22;12311;50.866;4.332;2022-07-04T15:33:26;28.40;82.60
24152;DHT22;12311;50.866;4.332;2022-07-04T15:35:53;28.20;83.80
24152;DHT22;12311;50.866;4.332;2022-07-04T15:38:20;28.40;84.20
24152;DHT22;12311;50.866;4.332;2022-07-04T15:40:46;28.50;82.90
24152;DHT22;12311;50.866;4.332;2022-07-04T15:43:13;28.20;83.30
24152;DHT22;12311;50.866;4.332;2022-07-04T15:45:39;28.50;85.00
24152;DHT22;12311;50.866;4.332;2022-07-04T15:48:05;28.30;84.10
24152;DHT22;12311;50.866;4.332;2022-07-04T15:50:31;28.20;85.00
24152;DHT22;12311;50.866;4.332;2022-07-04T15:52:56;28.10;86.30
24152;DHT22;12311;50.866;4.332;2022-07-04T15:55:22;27.40;85.40
24152;DHT22;12311;50.866;4.332;2022-07-04T15:57:48;27.60;87.40
24152;DHT22;12311;50.866;4.332;2022-07-04T16:00:15;27.80;88.00